createdAt,value
2023-02-23T00:00:26.145Z,42.62
2023-02-23T00:03:09.250Z,41.10
2023-02-23T00:05:38.649Z,46.68
2023-02-23T00:08:09.946Z,43.02
2023-02-23T00:10:39.264Z,45.12
2023-02-23T00:13:10.307Z,35.52
2023-02-23T00:15:40.407Z,45.73
2023-02-23T00:18:09.879Z,44.95
2023-02-23T00:20:42.273Z,48.87
2023-02-23T00:23:13.287Z,55.38
2023-02-23T00:25:44.233Z,53.92
2023-02-23T00:28:13.592Z,42.75
2023-02-23T00:30:43.094Z,42.25
2023-02-23T00:33:12.494Z,41.30
2023-02-23T00:35:42.777Z,47.70
2023-02-23T00:38:12.136Z,46.88
2023-02-23T00:40:42.742Z,54.55
2023-02-23T00:43:12.776Z,41.58
2023-02-23T00:45:42.305Z,59.65
2023-02-23T00:48:13.043Z,37.80
2023-02-23T00:50:42.526Z,41.10
2023-02-23T00:53:11.839Z,39.53
2023-02-23T00:55:42.665Z,38.40
2023-02-23T00:58:13.606Z,47.80
2023-02-23T01:00:44.984Z,36.05
2023-02-23T01:03:14.422Z,50.25
2023-02-23T01:05:48.705Z,43.55
2023-02-23T01:08:19.460Z,39.38
2023-02-23T01:10:52.252Z,62.23
2023-02-23T01:13:23.383Z,56.48
2023-02-23T01:15:52.844Z,42.67
2023-02-23T01:18:23.163Z,40.53
2023-02-23T01:20:53.137Z,50.40
2023-02-23T01:23:24.128Z,36.67
2023-02-23T01:25:54.435Z,53.48
2023-02-23T01:28:25.162Z,46.80
2023-02-23T01:30:56.297Z,49.38
2023-02-23T01:33:26.855Z,35.13
2023-02-23T01:36:00.877Z,42.67
2023-02-23T01:38:30.203Z,39.48
2023-02-23T01:41:01.833Z,42.27
2023-02-23T01:43:32.193Z,42.62
2023-02-23T01:46:01.611Z,52.90
2023-02-23T01:48:40.332Z,47.77
2023-02-23T01:51:18.278Z,52.45
2023-02-23T01:53:57.047Z,48.17
2023-02-23T01:56:30.886Z,52.60
2023-02-23T01:59:04.989Z,46.00
2023-02-23T02:01:35.908Z,44.18
2023-02-23T02:04:05.883Z,57.90
2023-02-23T02:06:39.130Z,49.75
2023-02-23T02:09:14.964Z,55.63
2023-02-23T02:11:46.674Z,39.95
2023-02-23T02:14:25.032Z,62.45
2023-02-23T02:17:14.792Z,47.83
2023-02-23T02:20:17.723Z,56.88
2023-02-23T02:23:23.143Z,48.78
2023-02-23T02:26:09.861Z,60.80
2023-02-23T02:28:56.668Z,52.62
2023-02-23T02:31:50.442Z,50.80
2023-02-23T02:34:46.583Z,37.23
2023-02-23T02:37:51.029Z,57.45
2023-02-23T02:40:46.181Z,51.28
2023-02-23T02:43:29.412Z,47.73
2023-02-23T02:46:04.549Z,55.50
2023-02-23T02:49:07.595Z,32.53
2023-02-23T02:51:45.786Z,43.25
2023-02-23T02:54:39.293Z,47.10
2023-02-23T02:57:12.018Z,58.50
2023-02-23T03:00:05.418Z,56.95
2023-02-23T03:03:00.859Z,58.23
2023-02-23T03:06:01.778Z,48.80
2023-02-23T03:09:16.573Z,49.03
2023-02-23T03:12:11.564Z,65.08
2023-02-23T03:18:51.092Z,42.70
2023-02-23T03:21:43.909Z,47.80
2023-02-23T03:24:49.036Z,47.80
2023-02-23T03:27:52.162Z,48.63
2023-02-23T03:30:49.806Z,56.35
2023-02-23T03:33:48.614Z,43.90
2023-02-23T03:36:40.923Z,63.45
2023-02-23T03:39:36.999Z,55.35
2023-02-23T03:42:30.677Z,51.28
2023-02-23T03:45:20.858Z,55.67
2023-02-23T03:48:11.001Z,48.35
2023-02-23T03:51:04.148Z,48.15
2023-02-23T03:53:54.065Z,45.03
2023-02-23T03:56:45.234Z,36.90
2023-02-23T03:59:35.659Z,50.08
2023-02-23T04:05:13.205Z,50.63
2023-02-23T04:08:03.728Z,58.68
2023-02-23T04:13:24.198Z,47.08
2023-02-23T04:16:03.300Z,65.10
2023-02-23T04:18:35.668Z,43.58
2023-02-23T04:21:05.800Z,50.98
2023-02-23T04:23:36.702Z,73.22
2023-02-23T04:26:07.181Z,41.35
2023-02-23T04:28:36.489Z,53.38
2023-02-23T04:31:06.360Z,51.42
2023-02-23T04:36:38.438Z,52.08
2023-02-23T04:39:07.906Z,48.05
2023-02-23T04:41:37.371Z,50.03
2023-02-23T04:44:08.281Z,45.10
2023-02-23T04:46:38.906Z,58.58
2023-02-23T04:49:09.701Z,45.58
2023-02-23T04:51:40.465Z,51.65
2023-02-23T04:54:11.845Z,45.85
2023-02-23T04:56:42.923Z,57.62
2023-02-23T04:59:13.171Z,64.12
2023-02-23T05:01:45.711Z,42.93
2023-02-23T05:04:15.061Z,47.20
2023-02-23T05:06:44.486Z,47.45
2023-02-23T05:09:13.813Z,55.97
2023-02-23T05:11:43.173Z,51.02
2023-02-23T05:14:12.789Z,52.73
2023-02-23T05:16:42.223Z,38.98
2023-02-23T05:19:11.975Z,45.92
2023-02-23T05:21:42.814Z,50.35
2023-02-23T05:24:12.304Z,48.20
2023-02-23T05:26:41.780Z,58.05
2023-02-23T05:29:11.315Z,46.37
2023-02-23T05:31:40.788Z,46.47
2023-02-23T05:34:10.245Z,54.10
2023-02-23T05:36:39.536Z,52.00
2023-02-23T05:39:08.998Z,55.30
2023-02-23T05:41:38.869Z,41.67
2023-02-23T05:44:08.570Z,46.45
2023-02-23T05:46:38.294Z,54.58
2023-02-23T05:49:07.878Z,58.98
2023-02-23T05:51:39.423Z,40.73
2023-02-23T05:54:10.199Z,41.68
2023-02-23T05:56:41.771Z,39.33
2023-02-23T05:59:13.101Z,49.63
2023-02-23T06:01:42.428Z,58.10
2023-02-23T06:04:14.117Z,59.58
2023-02-23T06:06:43.536Z,74.62
2023-02-23T06:09:13.758Z,54.10
2023-02-23T06:11:44.579Z,49.42
2023-02-23T06:14:16.389Z,44.77
2023-02-23T06:16:52.653Z,36.80
2023-02-23T06:19:22.107Z,59.40
2023-02-23T06:21:53.062Z,47.80
2023-02-23T06:24:23.516Z,56.98
2023-02-23T06:26:53.350Z,60.28
2023-02-23T06:29:22.827Z,39.42
2023-02-23T06:31:52.448Z,61.63
2023-02-23T06:34:21.850Z,43.55
2023-02-23T06:36:51.346Z,47.03
2023-02-23T06:39:20.780Z,55.93
2023-02-23T06:41:50.216Z,48.17
2023-02-23T06:44:19.524Z,43.17
2023-02-23T06:46:48.930Z,51.08
2023-02-23T06:49:18.262Z,48.52
2023-02-23T06:51:47.718Z,53.25
2023-02-23T06:54:17.749Z,42.55
2023-02-23T06:56:47.123Z,46.00
2023-02-23T06:59:16.557Z,56.30
2023-02-23T07:01:47.675Z,56.70
2023-02-23T07:04:17.352Z,51.00
2023-02-23T07:06:47.089Z,53.92
2023-02-23T07:09:16.660Z,54.60
2023-02-23T07:11:46.155Z,64.67
2023-02-23T07:14:26.168Z,55.90
2023-02-23T07:16:46.739Z,71.37
2023-02-23T07:19:16.181Z,49.17
2023-02-23T07:21:45.629Z,46.37
2023-02-23T07:24:15.001Z,53.93
2023-02-23T07:26:45.979Z,54.05
2023-02-23T07:29:17.543Z,44.67
2023-02-23T07:31:48.982Z,61.28
2023-02-23T07:34:18.530Z,59.15
2023-02-23T07:36:48.070Z,53.07
2023-02-23T07:39:17.437Z,64.03
2023-02-23T07:41:46.865Z,47.45
2023-02-23T07:44:18.528Z,43.87
2023-02-23T07:46:48.150Z,44.48
2023-02-23T07:49:17.578Z,43.42
2023-02-23T07:51:47.363Z,51.80
2023-02-23T07:54:17.054Z,55.58
2023-02-23T07:56:46.493Z,50.17
2023-02-23T07:59:15.917Z,53.17
2023-02-23T08:01:45.316Z,61.18
2023-02-23T08:04:14.876Z,52.67
2023-02-23T08:06:44.420Z,52.85
2023-02-23T08:09:13.922Z,61.37
2023-02-23T08:11:43.778Z,55.47
2023-02-23T08:14:13.483Z,68.17
2023-02-23T08:16:42.901Z,61.83
2023-02-23T08:19:12.227Z,47.87
2023-02-23T08:21:43.276Z,43.47
2023-02-23T08:24:12.657Z,42.67
2023-02-23T08:26:42.229Z,51.00
2023-02-23T08:29:11.755Z,51.00
2023-02-23T08:31:41.240Z,53.80
2023-02-23T08:34:11.369Z,54.03
2023-02-23T08:36:40.902Z,58.70
2023-02-23T08:39:11.664Z,46.42
2023-02-23T08:41:42.308Z,64.90
2023-02-23T08:44:11.825Z,57.15
2023-02-23T08:46:41.121Z,56.77
2023-02-23T08:49:11.500Z,65.45
2023-02-23T08:54:12.353Z,44.60
2023-02-23T08:56:42.884Z,61.20
2023-02-23T08:59:14.189Z,62.38
2023-02-23T09:01:43.938Z,54.60
2023-02-23T09:04:13.223Z,44.38
2023-02-23T09:06:42.763Z,60.05
2023-02-23T09:09:12.214Z,77.27
2023-02-23T09:11:41.711Z,57.53
2023-02-23T09:14:11.114Z,61.97
2023-02-23T09:16:40.569Z,55.15
2023-02-23T09:19:09.874Z,76.07
2023-02-23T09:21:39.233Z,71.20
2023-02-23T09:24:08.740Z,74.67
2023-02-23T09:26:39.737Z,91.90
2023-02-23T09:29:09.092Z,68.28
2023-02-23T09:31:40.474Z,84.03
2023-02-23T09:34:10.329Z,69.37
2023-02-23T09:36:39.915Z,67.97
2023-02-23T09:39:09.344Z,90.23
2023-02-23T09:42:01.461Z,71.15
2023-02-23T09:44:39.766Z,85.90
2023-02-23T09:47:16.186Z,78.15
2023-02-23T09:49:47.940Z,72.58
2023-02-23T09:52:32.260Z,71.47
2023-02-23T09:55:01.821Z,67.12
2023-02-23T09:57:34.216Z,70.92
2023-02-23T10:00:05.783Z,83.47
2023-02-23T10:02:37.523Z,80.45
2023-02-23T10:05:13.141Z,80.05
2023-02-23T10:08:03.197Z,78.22
2023-02-23T10:10:50.652Z,91.97
2023-02-23T10:13:41.068Z,100.12
2023-02-23T10:19:06.870Z,93.37
2023-02-23T10:21:39.249Z,106.90
2023-02-23T10:24:20.479Z,102.45
2023-02-23T10:26:58.605Z,85.25
2023-02-23T10:29:39.789Z,108.22
2023-02-23T10:32:23.345Z,87.90
2023-02-23T10:34:56.974Z,107.95
2023-02-23T10:37:27.600Z,86.40
2023-02-23T10:39:57.437Z,86.28
2023-02-23T10:42:29.212Z,89.30
2023-02-23T10:45:00.369Z,87.53
2023-02-23T10:47:37.410Z,77.22
2023-02-23T10:50:07.702Z,82.78
2023-02-23T10:55:11.151Z,98.62
2023-02-23T10:57:41.516Z,103.92
2023-02-23T11:02:51.050Z,100.67
2023-02-23T11:05:47.527Z,76.17
2023-02-23T11:08:22.738Z,85.32
2023-02-23T11:11:07.023Z,101.42
2023-02-23T11:13:39.699Z,88.65
2023-02-23T11:16:15.212Z,87.65
2023-02-23T11:18:59.456Z,71.92
2023-02-23T11:21:34.896Z,77.82
2023-02-23T11:24:26.793Z,85.30
2023-02-23T11:26:59.694Z,74.05
2023-02-23T11:29:36.466Z,82.88
2023-02-23T11:32:13.549Z,89.72
2023-02-23T11:34:44.463Z,76.22
2023-02-23T11:37:23.040Z,90.45
2023-02-23T11:39:57.996Z,87.25
2023-02-23T11:42:31.275Z,93.05
2023-02-23T11:45:09.596Z,80.07
2023-02-23T11:47:44.586Z,78.83
2023-02-23T11:50:32.050Z,75.85
2023-02-23T11:53:07.374Z,86.47
2023-02-23T11:55:38.401Z,79.25
2023-02-23T11:58:25.584Z,83.40
2023-02-23T12:01:13.730Z,78.07
2023-02-23T12:03:49.240Z,71.47
2023-02-23T12:06:33.846Z,68.00
2023-02-23T12:09:16.652Z,78.50
2023-02-23T12:11:49.106Z,69.82
2023-02-23T12:14:27.298Z,85.70
2023-02-23T12:17:11.498Z,82.42
2023-02-23T12:19:43.922Z,86.72
2023-02-23T12:22:16.367Z,79.85
2023-02-23T12:24:51.696Z,82.02
2023-02-23T12:27:36.196Z,72.95
2023-02-23T12:30:17.332Z,81.92
2023-02-23T12:32:53.785Z,82.17
2023-02-23T12:35:29.494Z,79.07
2023-02-23T12:38:24.335Z,79.50
2023-02-23T12:40:56.086Z,68.52
2023-02-23T12:43:51.315Z,62.62
2023-02-23T12:46:40.480Z,66.33
2023-02-23T12:49:47.706Z,66.95
2023-02-23T12:52:26.358Z,76.92
2023-02-23T12:54:56.574Z,58.10
2023-02-23T12:57:34.851Z,73.40
2023-02-23T13:00:14.809Z,77.05
2023-02-23T13:02:49.930Z,59.08
2023-02-23T13:05:28.397Z,65.92
2023-02-23T13:08:12.552Z,66.00
2023-02-23T13:10:46.891Z,64.45
2023-02-23T13:13:44.951Z,62.45
2023-02-23T13:16:26.612Z,67.05
2023-02-23T13:19:21.285Z,67.92
2023-02-23T13:22:08.729Z,58.73
2023-02-23T13:24:40.694Z,95.70
2023-02-23T13:27:25.119Z,65.75
2023-02-23T13:29:55.965Z,69.42
2023-02-23T13:32:32.343Z,71.60
2023-02-23T13:35:07.354Z,75.20
2023-02-23T13:37:48.343Z,70.08
2023-02-23T13:40:38.763Z,78.62
2023-02-23T13:46:06.787Z,75.35
2023-02-23T13:51:11.268Z,86.35
2023-02-23T13:54:02.243Z,89.37
2023-02-23T13:56:38.157Z,70.32
2023-02-23T13:59:11.790Z,95.87
2023-02-23T14:01:44.376Z,75.60
2023-02-23T14:04:28.461Z,83.92
2023-02-23T14:07:06.791Z,78.47
2023-02-23T14:09:39.030Z,84.60
2023-02-23T14:12:15.849Z,79.72
2023-02-23T14:14:47.076Z,80.15
2023-02-23T14:17:19.739Z,80.40
2023-02-23T14:20:13.363Z,87.17
2023-02-23T14:23:01.102Z,79.47
2023-02-23T14:25:40.809Z,87.62
2023-02-23T14:28:25.369Z,74.80
2023-02-23T14:31:23.061Z,80.05
2023-02-23T14:33:55.893Z,72.75
2023-02-23T14:36:28.288Z,74.95
2023-02-23T14:39:00.796Z,88.90
2023-02-23T14:41:36.263Z,77.82
2023-02-23T14:44:31.168Z,78.28
2023-02-23T14:47:14.889Z,74.90
2023-02-23T14:49:47.366Z,87.75
2023-02-23T14:52:25.273Z,77.47
2023-02-23T14:55:14.958Z,86.15
2023-02-23T14:57:45.083Z,68.85
2023-02-23T15:00:22.209Z,86.08
2023-02-23T15:03:11.064Z,75.20
2023-02-23T15:05:51.275Z,84.62
2023-02-23T15:08:23.728Z,72.20
2023-02-23T15:11:02.440Z,79.07
2023-02-23T15:16:12.663Z,92.82
2023-02-23T15:18:44.369Z,88.60
2023-02-23T15:21:20.043Z,78.67
2023-02-23T15:23:52.846Z,78.57
2023-02-23T15:26:37.331Z,85.45
2023-02-23T15:29:15.404Z,105.65
2023-02-23T15:31:52.932Z,89.50
2023-02-23T15:34:31.883Z,120.72
2023-02-23T15:37:07.608Z,141.30
2023-02-23T15:39:48.867Z,133.32
2023-02-23T15:42:21.628Z,131.65
2023-02-23T15:45:00.005Z,151.57
2023-02-23T15:47:35.153Z,148.82
2023-02-23T15:50:18.167Z,143.50
2023-02-23T15:52:50.577Z,174.25
2023-02-23T15:55:25.915Z,150.45
2023-02-23T15:58:01.132Z,172.70
2023-02-23T16:00:41.932Z,152.70
2023-02-23T16:03:34.135Z,154.75
2023-02-23T16:06:06.809Z,168.20
2023-02-23T16:08:37.132Z,160.35
2023-02-23T16:13:45.951Z,160.88
2023-02-23T16:16:19.818Z,168.68
2023-02-23T16:18:54.858Z,167.72
2023-02-23T16:21:25.851Z,166.65
2023-02-23T16:23:56.008Z,164.35
2023-02-23T16:26:34.469Z,156.28
2023-02-23T16:29:05.298Z,160.85
2023-02-23T16:31:49.676Z,151.20
2023-02-23T16:34:27.876Z,131.67
2023-02-23T16:37:00.014Z,146.35
2023-02-23T16:39:31.017Z,156.00
2023-02-23T16:42:00.864Z,155.37
2023-02-23T16:44:42.946Z,153.35
2023-02-23T16:47:07.702Z,141.75
2023-02-23T16:49:37.266Z,170.25
2023-02-23T16:52:11.300Z,139.50
2023-02-23T16:54:40.731Z,149.75
2023-02-23T16:57:13.119Z,160.13
2023-02-23T16:59:42.689Z,141.32
2023-02-23T17:02:13.846Z,139.32
2023-02-23T17:04:45.629Z,135.48
2023-02-23T17:07:16.643Z,158.65
2023-02-23T17:09:46.126Z,124.70
2023-02-23T17:12:18.227Z,137.63
2023-02-23T17:14:48.568Z,154.82
2023-02-23T17:19:47.220Z,130.63
2023-02-23T17:22:16.675Z,159.87
2023-02-23T17:24:45.981Z,151.35
2023-02-23T17:27:15.373Z,140.37
2023-02-23T17:29:44.689Z,143.13
2023-02-23T17:32:14.214Z,135.82
2023-02-23T17:34:43.685Z,153.55
2023-02-23T17:37:13.064Z,138.52
2023-02-23T17:39:42.392Z,139.72
2023-02-23T17:42:11.859Z,144.37
2023-02-23T17:44:41.187Z,130.77
2023-02-23T17:47:10.881Z,141.80
2023-02-23T17:49:40.402Z,145.53
2023-02-23T17:52:09.774Z,147.83
2023-02-23T17:54:39.136Z,134.72
2023-02-23T17:57:08.521Z,149.47
2023-02-23T17:59:37.944Z,148.13
2023-02-23T18:02:09.778Z,132.77
2023-02-23T18:04:39.099Z,143.17
2023-02-23T18:07:09.034Z,131.95
2023-02-23T18:09:39.337Z,127.50
2023-02-23T18:12:09.226Z,133.00
2023-02-23T18:14:38.609Z,150.62
2023-02-23T18:17:07.986Z,153.87
2023-02-23T18:19:37.371Z,130.67
2023-02-23T18:22:06.756Z,152.68
2023-02-23T18:27:19.109Z,135.40
2023-02-23T18:29:48.492Z,132.33
2023-02-23T18:32:18.139Z,138.12
2023-02-23T18:34:47.622Z,159.52
2023-02-23T18:37:18.673Z,135.03
2023-02-23T18:39:49.558Z,132.87
2023-02-23T18:42:19.002Z,131.80
2023-02-23T18:44:48.308Z,128.53
2023-02-23T18:47:17.888Z,121.28
2023-02-23T18:49:47.485Z,134.25
2023-02-23T18:52:17.104Z,138.92
2023-02-23T18:54:46.541Z,122.30
2023-02-23T18:57:15.984Z,117.10
2023-02-23T18:59:46.864Z,138.10
2023-02-23T19:02:16.296Z,126.90
2023-02-23T19:04:45.745Z,126.43
2023-02-23T19:07:15.057Z,145.90
2023-02-23T19:09:47.098Z,140.03
2023-02-23T19:12:16.475Z,127.75
2023-02-23T19:14:49.594Z,130.40
2023-02-23T19:17:17.048Z,137.55
2023-02-23T19:19:46.366Z,84.28
2023-02-23T19:22:15.768Z,58.52
2023-02-23T19:24:45.106Z,60.35
2023-02-23T19:27:15.576Z,51.48
2023-02-23T19:29:46.561Z,43.90
2023-02-23T19:32:17.933Z,56.85
2023-02-23T19:34:47.586Z,50.98
2023-02-23T19:37:17.017Z,48.20
2023-02-23T19:39:46.503Z,50.88
2023-02-23T19:42:17.503Z,34.97
2023-02-23T19:44:46.921Z,75.70
2023-02-23T19:47:16.282Z,38.83
2023-02-23T19:49:45.772Z,52.13
2023-02-23T19:52:15.205Z,45.27
2023-02-23T19:54:44.635Z,47.13
2023-02-23T19:57:14.082Z,52.08
2023-02-23T19:59:43.402Z,66.23
2023-02-23T20:02:12.877Z,46.88
2023-02-23T20:04:42.325Z,55.80
2023-02-23T20:07:11.739Z,61.50
2023-02-23T20:09:41.267Z,47.70
2023-02-23T20:12:10.852Z,57.30
2023-02-23T20:14:41.376Z,47.43
2023-02-23T20:17:12.566Z,57.45
2023-02-23T20:19:42.002Z,35.30
2023-02-23T20:22:11.365Z,39.17
2023-02-23T20:24:40.854Z,53.83
2023-02-23T20:27:10.286Z,46.83
2023-02-23T20:29:39.731Z,44.65
2023-02-23T20:32:09.182Z,40.53
2023-02-23T20:34:39.140Z,42.77
2023-02-23T20:37:08.493Z,48.52
2023-02-23T20:39:37.985Z,43.58
2023-02-23T20:42:07.278Z,36.87
2023-02-23T20:44:36.720Z,46.55
2023-02-23T20:47:07.810Z,61.97
2023-02-23T20:49:39.164Z,51.55
2023-02-23T20:52:08.646Z,38.88
2023-02-23T20:54:39.838Z,36.87
2023-02-23T20:57:09.302Z,32.70
2023-02-23T20:59:38.913Z,33.87
2023-02-23T21:02:10.891Z,42.95
2023-02-23T21:04:41.955Z,35.00
2023-02-23T21:07:13.318Z,41.65
2023-02-23T21:09:43.452Z,48.95
2023-02-23T21:12:13.839Z,35.68
2023-02-23T21:17:11.804Z,48.00
2023-02-23T21:19:41.159Z,59.17
2023-02-23T21:22:11.476Z,27.60
2023-02-23T21:27:13.288Z,35.77
2023-02-23T21:29:43.960Z,48.33
2023-02-23T21:32:14.665Z,27.75
2023-02-23T21:37:08.897Z,30.43
2023-02-23T21:39:38.198Z,43.87
2023-02-23T21:42:11.157Z,25.20
2023-02-23T21:44:42.089Z,44.70
2023-02-23T21:47:11.673Z,35.88
2023-02-23T21:49:41.071Z,25.52
2023-02-23T21:52:10.692Z,27.67
2023-02-23T21:54:41.026Z,44.05
2023-02-23T21:59:40.453Z,44.48
2023-02-23T22:02:13.174Z,30.05
2023-02-23T22:04:43.425Z,39.53
2023-02-23T22:07:12.848Z,34.08
2023-02-23T22:09:43.999Z,34.13
2023-02-23T22:12:14.280Z,33.00
2023-02-23T22:14:43.711Z,26.93
2023-02-23T22:17:13.701Z,39.30
2023-02-23T22:19:43.424Z,51.90
2023-02-23T22:22:13.964Z,33.07
2023-02-23T22:24:43.462Z,43.87
2023-02-23T22:27:12.777Z,40.33
2023-02-23T22:29:45.831Z,24.63
2023-02-23T22:32:16.970Z,25.37
2023-02-23T22:34:46.488Z,17.52
2023-02-23T22:37:15.851Z,41.58
2023-02-23T22:39:45.349Z,36.53
2023-02-23T22:42:16.256Z,44.93
2023-02-23T22:44:45.762Z,39.13
2023-02-23T22:47:15.147Z,46.30
2023-02-23T22:49:46.041Z,34.77
2023-02-23T22:52:15.955Z,32.20
2023-02-23T22:54:47.942Z,43.02
2023-02-23T22:57:17.275Z,25.43
2023-02-23T22:59:48.265Z,36.50
2023-02-23T23:02:17.730Z,25.15
2023-02-23T23:04:47.536Z,26.93
2023-02-23T23:07:18.565Z,43.30
2023-02-23T23:09:48.005Z,38.80
2023-02-23T23:12:18.094Z,29.00
2023-02-23T23:14:47.555Z,16.73
2023-02-23T23:17:20.554Z,48.03
2023-02-23T23:19:50.796Z,28.38
2023-02-23T23:22:20.342Z,30.85
2023-02-23T23:24:50.448Z,29.80
2023-02-23T23:27:21.356Z,28.10
2023-02-23T23:29:50.894Z,32.48
2023-02-23T23:32:23.688Z,17.33
2023-02-23T23:34:54.712Z,22.82
2023-02-23T23:37:27.329Z,31.40
2023-02-23T23:39:58.441Z,32.10
2023-02-23T23:42:28.848Z,35.30
2023-02-23T23:44:58.202Z,26.93
2023-02-23T23:47:30.356Z,26.30
2023-02-23T23:49:59.924Z,20.10
2023-02-23T23:52:31.531Z,28.17
2023-02-23T23:55:02.495Z,28.23
2023-02-23T23:57:33.906Z,24.12
